createdAt,value
2023-01-11T00:00:56.788Z,2.67
2023-01-11T00:03:23.760Z,2.50
2023-01-11T00:05:50.598Z,3.20
2023-01-11T00:08:19.731Z,3.17
2023-01-11T00:10:46.882Z,2.60
2023-01-11T00:13:14.612Z,2.93
2023-01-11T00:15:41.623Z,3.03
2023-01-11T00:18:09.020Z,2.70
2023-01-11T00:20:39.977Z,2.77
2023-01-11T00:23:07.232Z,2.27
2023-01-11T00:25:34.298Z,2.60
2023-01-11T00:28:01.561Z,2.73
2023-01-11T00:30:28.495Z,2.80
2023-01-11T00:32:57.234Z,2.73
2023-01-11T00:35:24.791Z,2.23
2023-01-11T00:37:53.854Z,2.63
2023-01-11T00:40:21.310Z,2.47
2023-01-11T00:43:07.258Z,2.97
2023-01-11T00:45:53.062Z,2.43
2023-01-11T00:48:20.404Z,2.90
2023-01-11T00:50:47.246Z,2.40
2023-01-11T00:53:14.821Z,2.43
2023-01-11T00:55:42.680Z,2.80
2023-01-11T00:58:09.567Z,2.10
2023-01-11T01:00:36.982Z,2.30
2023-01-11T01:03:03.938Z,2.53
2023-01-11T01:05:30.859Z,2.47
2023-01-11T01:07:57.705Z,2.70
2023-01-11T01:10:24.637Z,2.10
2023-01-11T01:13:12.697Z,1.90
2023-01-11T01:15:39.620Z,2.47
2023-01-11T01:18:06.998Z,2.20
2023-01-11T01:20:34.624Z,2.27
2023-01-11T01:23:01.914Z,2.40
2023-01-11T01:25:28.818Z,2.60
2023-01-11T01:27:55.700Z,2.70
2023-01-11T01:30:23.066Z,2.70
2023-01-11T01:32:49.983Z,2.70
2023-01-11T01:35:17.491Z,3.37
2023-01-11T01:37:45.005Z,3.07
2023-01-11T01:40:12.415Z,2.70
2023-01-11T01:42:39.299Z,3.90
2023-01-11T01:45:23.759Z,3.30
2023-01-11T01:48:00.572Z,2.60
2023-01-11T01:50:37.747Z,3.20
2023-01-11T01:53:17.423Z,2.93
2023-01-11T01:55:50.866Z,3.20
2023-01-11T01:58:23.225Z,2.90
2023-01-11T02:00:50.596Z,2.70
2023-01-11T02:03:23.735Z,3.30
2023-01-11T02:05:52.348Z,3.00
2023-01-11T02:08:33.099Z,3.40
2023-01-11T02:11:00.365Z,3.10
2023-01-11T02:13:27.613Z,3.10
2023-01-11T02:16:08.887Z,2.87
2023-01-11T02:18:37.474Z,2.80
2023-01-11T02:21:27.891Z,2.57
2023-01-11T02:24:09.792Z,2.80
2023-01-11T02:26:55.511Z,3.07
2023-01-11T02:29:49.805Z,2.60
2023-01-11T02:32:32.722Z,2.30
2023-01-11T02:35:31.342Z,2.50
2023-01-11T02:38:00.531Z,2.50
2023-01-11T02:40:58.309Z,2.40
2023-01-11T02:43:55.501Z,2.40
2023-01-11T02:46:32.990Z,2.67
2023-01-11T02:49:35.524Z,2.97
2023-01-11T02:52:43.757Z,3.60
2023-01-11T02:55:15.078Z,3.07
2023-01-11T02:57:44.682Z,3.00
2023-01-11T03:00:13.138Z,3.30
2023-01-11T03:02:40.116Z,3.97
2023-01-11T03:05:12.563Z,3.43
2023-01-11T03:08:00.592Z,3.20
2023-01-11T03:10:46.780Z,3.70
2023-01-11T03:13:19.743Z,3.60
2023-01-11T03:15:55.840Z,2.83
2023-01-11T03:19:00.113Z,3.30
2023-01-11T03:21:54.817Z,2.80
2023-01-11T03:24:33.948Z,2.93
2023-01-11T03:27:17.939Z,2.73
2023-01-11T03:30:23.040Z,2.93
2023-01-11T03:33:11.904Z,2.80
2023-01-11T03:35:41.500Z,2.80
2023-01-11T03:38:16.508Z,3.40
2023-01-11T03:41:04.681Z,3.67
2023-01-11T03:43:35.535Z,3.40
2023-01-11T03:46:27.796Z,3.23
2023-01-11T03:49:33.970Z,3.30
2023-01-11T03:52:04.466Z,3.60
2023-01-11T03:54:33.717Z,3.17
2023-01-11T03:57:06.050Z,3.27
2023-01-11T03:59:33.782Z,3.23
2023-01-11T04:02:01.693Z,3.00
2023-01-11T04:04:29.102Z,2.90
2023-01-11T04:06:56.791Z,3.90
2023-01-11T04:09:23.690Z,2.70
2023-01-11T04:11:50.935Z,3.27
2023-01-11T04:14:17.978Z,3.43
2023-01-11T04:16:44.827Z,3.53
2023-01-11T04:19:11.977Z,3.20
2023-01-11T04:21:38.980Z,2.67
2023-01-11T04:24:06.119Z,3.13
2023-01-11T04:26:33.343Z,2.47
2023-01-11T04:29:00.303Z,2.87
2023-01-11T04:31:27.284Z,2.80
2023-01-11T04:33:54.550Z,3.07
2023-01-11T04:36:21.667Z,2.50
2023-01-11T04:38:48.655Z,2.60
2023-01-11T04:41:34.756Z,2.63
2023-01-11T04:44:01.654Z,2.80
2023-01-11T04:46:28.523Z,2.37
2023-01-11T04:48:56.499Z,2.30
2023-01-11T04:51:23.583Z,2.30
2023-01-11T04:53:50.528Z,2.27
2023-01-11T04:56:18.470Z,2.13
2023-01-11T04:58:45.390Z,2.80
2023-01-11T05:01:16.159Z,2.83
2023-01-11T05:03:43.684Z,2.03
2023-01-11T05:06:10.698Z,2.30
2023-01-11T05:08:37.674Z,2.30
2023-01-11T05:11:07.517Z,2.57
2023-01-11T05:13:44.363Z,2.33
2023-01-11T05:16:23.874Z,2.33
2023-01-11T05:18:56.837Z,2.13
2023-01-11T05:21:29.629Z,2.30
2023-01-11T05:23:56.841Z,2.00
2023-01-11T05:26:27.928Z,2.20
2023-01-11T05:28:57.270Z,2.40
2023-01-11T05:31:24.706Z,2.33
2023-01-11T05:33:51.801Z,3.03
2023-01-11T05:36:20.945Z,2.67
2023-01-11T05:38:49.357Z,2.63
2023-01-11T05:41:17.518Z,2.40
2023-01-11T05:44:04.465Z,3.10
2023-01-11T05:46:32.509Z,2.50
2023-01-11T05:49:00.124Z,3.30
2023-01-11T05:51:30.877Z,2.97
2023-01-11T05:53:58.510Z,2.97
2023-01-11T05:56:26.093Z,3.10
2023-01-11T05:58:53.453Z,3.03
2023-01-11T06:01:21.971Z,2.77
2023-01-11T06:03:49.374Z,2.50
2023-01-11T06:06:17.625Z,2.47
2023-01-11T06:08:44.955Z,2.90
2023-01-11T06:11:11.949Z,2.60
2023-01-11T06:13:39.511Z,2.77
2023-01-11T06:16:10.115Z,2.40
2023-01-11T06:18:39.685Z,2.60
2023-01-11T06:21:07.722Z,2.50
2023-01-11T06:23:40.153Z,2.60
2023-01-11T06:26:13.065Z,3.27
2023-01-11T06:28:40.614Z,2.90
2023-01-11T06:31:07.991Z,2.87
2023-01-11T06:33:35.742Z,2.50
2023-01-11T06:36:07.817Z,2.40
2023-01-11T06:38:35.956Z,2.17
2023-01-11T06:41:04.835Z,2.40
2023-01-11T06:43:32.866Z,3.10
2023-01-11T06:46:00.321Z,2.30
2023-01-11T06:48:28.306Z,1.97
2023-01-11T06:50:57.935Z,2.07
2023-01-11T06:53:28.643Z,2.20
2023-01-11T06:55:57.344Z,2.70
2023-01-11T06:58:26.514Z,2.40
2023-01-11T07:00:55.837Z,2.40
2023-01-11T07:03:24.540Z,2.30
2023-01-11T07:05:52.557Z,2.30
2023-01-11T07:08:19.978Z,2.40
2023-01-11T07:10:47.394Z,1.70
2023-01-11T07:13:17.207Z,2.07
2023-01-11T07:15:45.618Z,2.03
2023-01-11T07:18:13.018Z,1.73
2023-01-11T07:20:40.972Z,1.90
2023-01-11T07:23:08.170Z,2.20
2023-01-11T07:25:35.501Z,3.10
2023-01-11T07:28:04.728Z,2.70
2023-01-11T07:30:47.889Z,2.53
2023-01-11T07:33:21.764Z,3.00
2023-01-11T07:35:49.485Z,3.40
2023-01-11T07:38:16.494Z,3.50
2023-01-11T07:40:43.633Z,3.87
2023-01-11T07:43:15.705Z,3.63
2023-01-11T07:45:46.643Z,3.80
2023-01-11T07:48:14.722Z,4.03
2023-01-11T07:50:44.445Z,4.00
2023-01-11T07:53:12.378Z,4.67
2023-01-11T07:55:40.032Z,4.87
2023-01-11T07:58:13.798Z,5.70
2023-01-11T08:00:41.422Z,5.80
2023-01-11T08:03:08.779Z,5.47
2023-01-11T08:05:36.166Z,5.30
2023-01-11T08:08:03.437Z,6.10
2023-01-11T08:10:31.157Z,5.90
2023-01-11T08:13:16.781Z,6.30
2023-01-11T08:15:43.902Z,6.30
2023-01-11T08:18:12.738Z,6.13
2023-01-11T08:20:40.716Z,5.97
2023-01-11T08:23:09.971Z,5.60
2023-01-11T08:25:37.769Z,4.87
2023-01-11T08:28:06.714Z,4.93
2023-01-11T08:30:34.082Z,5.00
2023-01-11T08:33:01.981Z,4.30
2023-01-11T08:35:29.222Z,4.53
2023-01-11T08:37:56.101Z,5.93
2023-01-11T08:40:24.402Z,5.40
2023-01-11T08:42:58.225Z,4.03
2023-01-11T08:45:25.513Z,4.60
2023-01-11T08:47:52.854Z,3.80
2023-01-11T08:50:22.224Z,5.20
2023-01-11T08:52:51.115Z,4.47
2023-01-11T08:55:21.150Z,4.50
2023-01-11T08:57:48.024Z,4.07
2023-01-11T09:00:15.624Z,4.50
2023-01-11T09:02:42.973Z,5.33
2023-01-11T09:05:10.115Z,4.53
2023-01-11T09:07:37.770Z,4.40
2023-01-11T09:10:04.977Z,5.40
2023-01-11T09:12:33.064Z,4.47
2023-01-11T09:15:00.585Z,4.00
2023-01-11T09:17:27.701Z,4.70
2023-01-11T09:19:54.697Z,4.40
2023-01-11T09:22:21.617Z,4.97
2023-01-11T09:24:48.572Z,6.13
2023-01-11T09:27:16.391Z,4.20
2023-01-11T09:29:43.446Z,5.97
2023-01-11T09:32:10.301Z,5.50
2023-01-11T09:34:37.161Z,5.50
2023-01-11T09:37:06.772Z,4.90
2023-01-11T09:39:35.554Z,4.20
2023-01-11T09:42:36.701Z,5.57
2023-01-11T09:45:14.761Z,4.43
2023-01-11T09:48:15.416Z,5.20
2023-01-11T09:50:45.772Z,4.43
2023-01-11T09:53:22.605Z,6.63
2023-01-11T09:55:52.616Z,4.60
2023-01-11T09:58:42.753Z,4.10
2023-01-11T10:01:33.803Z,5.60
2023-01-11T10:04:25.985Z,4.67
2023-01-11T10:07:13.357Z,4.20
2023-01-11T10:18:28.389Z,5.20
2023-01-11T10:19:36.427Z,4.53
2023-01-11T10:22:20.832Z,4.73
2023-01-11T10:25:13.050Z,4.27
2023-01-11T10:27:45.460Z,4.50
2023-01-11T10:30:34.419Z,5.73
2023-01-11T10:33:29.169Z,4.60
2023-01-11T10:36:40.893Z,4.40
2023-01-11T10:39:37.697Z,4.10
2023-01-11T10:42:28.637Z,4.53
2023-01-11T10:45:06.518Z,4.07
2023-01-11T10:47:44.536Z,3.60
2023-01-11T10:50:54.859Z,4.50
2023-01-11T10:53:50.808Z,4.43
2023-01-11T10:57:01.956Z,3.53
2023-01-11T10:59:46.915Z,4.20
2023-01-11T11:02:27.791Z,3.63
2023-01-11T11:05:16.562Z,4.43
2023-01-11T11:07:56.070Z,4.60
2023-01-11T11:11:03.425Z,4.40
2023-01-11T11:13:39.945Z,4.30
2023-01-11T11:16:23.275Z,4.70
2023-01-11T11:18:52.195Z,4.13
2023-01-11T11:21:37.987Z,4.73
2023-01-11T11:24:27.967Z,4.73
2023-01-11T11:27:04.438Z,4.17
2023-01-11T11:29:31.564Z,3.90
2023-01-11T11:32:01.352Z,3.83
2023-01-11T11:34:28.845Z,3.93
2023-01-11T11:36:59.209Z,3.73
2023-01-11T11:39:29.973Z,4.03
2023-01-11T11:42:10.649Z,3.43
2023-01-11T11:44:37.964Z,3.70
2023-01-11T11:47:07.191Z,4.17
2023-01-11T11:49:36.453Z,3.10
2023-01-11T11:52:05.895Z,4.07
2023-01-11T11:54:59.858Z,3.60
2023-01-11T11:57:29.210Z,4.70
2023-01-11T12:00:27.429Z,3.33
2023-01-11T12:03:16.961Z,3.80
2023-01-11T12:06:20.699Z,4.23
2023-01-11T12:08:47.622Z,3.80
2023-01-11T12:11:22.310Z,3.67
2023-01-11T12:14:03.573Z,3.50
2023-01-11T12:16:35.212Z,3.70
2023-01-11T12:19:02.239Z,5.23
2023-01-11T12:21:31.027Z,5.93
2023-01-11T12:24:17.201Z,6.10
2023-01-11T12:26:52.735Z,5.80
2023-01-11T12:29:39.540Z,5.43
2023-01-11T12:32:18.501Z,5.93
2023-01-11T12:35:20.602Z,4.90
2023-01-11T12:38:32.889Z,5.03
2023-01-11T12:41:18.293Z,5.70
2023-01-11T12:44:09.794Z,7.30
2023-01-11T12:46:54.568Z,5.60
2023-01-11T12:49:27.160Z,5.80
2023-01-11T12:52:17.016Z,5.70
2023-01-11T12:54:51.676Z,6.03
2023-01-11T12:57:42.706Z,5.57
2023-01-11T13:00:50.032Z,5.77
2023-01-11T13:03:27.743Z,6.20
2023-01-11T13:06:09.596Z,5.87
2023-01-11T13:08:55.139Z,5.93
2023-01-11T13:11:45.946Z,5.40
2023-01-11T13:14:23.062Z,5.77
2023-01-11T13:17:27.483Z,5.90
2023-01-11T13:20:13.277Z,4.77
2023-01-11T13:22:47.114Z,4.80
2023-01-11T13:25:27.633Z,4.43
2023-01-11T13:28:00.554Z,4.63
2023-01-11T13:30:28.554Z,4.87
2023-01-11T13:33:17.752Z,5.10
2023-01-11T13:35:51.721Z,5.47
2023-01-11T13:39:01.549Z,4.50
2023-01-11T13:41:52.217Z,4.60
2023-01-11T13:44:35.025Z,4.50
2023-01-11T13:47:13.482Z,4.60
2023-01-11T13:50:08.240Z,4.63
2023-01-11T13:52:48.556Z,3.63
2023-01-11T13:55:40.653Z,4.33
2023-01-11T13:58:28.967Z,3.30
2023-01-11T14:01:09.115Z,4.23
2023-01-11T14:03:51.417Z,3.97
2023-01-11T14:06:51.299Z,4.17
2023-01-11T14:09:18.198Z,3.80
2023-01-11T14:11:50.511Z,4.30
2023-01-11T14:14:38.701Z,4.73
2023-01-11T14:17:19.240Z,3.67
2023-01-11T14:20:15.496Z,3.93
2023-01-11T14:23:13.396Z,3.93
2023-01-11T14:25:59.426Z,3.63
2023-01-11T14:28:26.293Z,5.30
2023-01-11T14:31:02.266Z,3.67
2023-01-11T14:33:57.965Z,3.87
2023-01-11T14:36:38.853Z,5.30
2023-01-11T14:39:23.885Z,4.50
2023-01-11T14:41:56.640Z,3.97
2023-01-11T14:44:39.432Z,4.93
2023-01-11T14:47:12.098Z,4.53
2023-01-11T14:49:39.203Z,4.60
2023-01-11T14:52:16.298Z,4.70
2023-01-11T14:54:49.591Z,4.63
2023-01-11T14:58:15.367Z,4.53
2023-01-11T15:00:42.708Z,4.30
2023-01-11T15:03:09.614Z,3.50
2023-01-11T15:05:58.733Z,4.50
2023-01-11T15:08:27.972Z,4.43
2023-01-11T15:11:01.239Z,5.10
2023-01-11T15:13:43.133Z,4.87
2023-01-11T15:16:38.318Z,6.07
2023-01-11T15:19:08.048Z,5.43
2023-01-11T15:21:47.721Z,6.60
2023-01-11T15:24:28.121Z,4.63
2023-01-11T15:27:01.722Z,4.37
2023-01-11T15:29:32.919Z,4.30
2023-01-11T15:32:05.155Z,5.50
2023-01-11T15:34:32.465Z,4.10
2023-01-11T15:37:03.439Z,5.43
2023-01-11T15:39:59.256Z,5.47
2023-01-11T15:42:31.988Z,4.90
2023-01-11T15:45:17.222Z,4.03
2023-01-11T15:48:14.125Z,4.60
2023-01-11T15:50:49.451Z,4.37
2023-01-11T15:53:22.307Z,4.10
2023-01-11T15:56:17.177Z,4.60
2023-01-11T15:59:01.297Z,5.17
2023-01-11T16:01:29.508Z,5.00
2023-01-11T16:03:57.882Z,4.43
2023-01-11T16:06:45.248Z,4.00
2023-01-11T16:09:27.350Z,5.13
2023-01-11T16:12:25.161Z,4.73
2023-01-11T16:15:17.039Z,4.57
2023-01-11T16:17:46.363Z,5.00
2023-01-11T16:20:34.377Z,4.83
2023-01-11T16:23:05.872Z,5.37
2023-01-11T16:25:36.925Z,4.70
2023-01-11T16:28:04.785Z,4.63
2023-01-11T16:30:32.139Z,4.50
2023-01-11T16:33:22.451Z,4.93
2023-01-11T16:35:49.403Z,4.53
2023-01-11T16:38:20.381Z,4.70
2023-01-11T16:40:53.545Z,4.60
2023-01-11T16:43:27.377Z,5.10
2023-01-11T16:45:54.686Z,5.27
2023-01-11T16:48:26.758Z,5.23
2023-01-11T16:51:14.253Z,4.20
2023-01-11T16:53:43.597Z,4.77
2023-01-11T16:56:25.805Z,4.80
2023-01-11T16:59:14.807Z,4.83
2023-01-11T17:02:24.715Z,5.33
2023-01-11T17:04:54.287Z,5.23
2023-01-11T17:07:29.658Z,4.73
2023-01-11T17:10:19.393Z,4.90
2023-01-11T17:12:52.101Z,4.67
2023-01-11T17:15:58.850Z,5.17
2023-01-11T17:18:25.806Z,3.73
2023-01-11T17:20:54.263Z,4.40
2023-01-11T17:23:21.230Z,3.83
2023-01-11T17:25:56.336Z,4.13
2023-01-11T17:28:23.937Z,3.50
2023-01-11T17:30:53.248Z,4.17
2023-01-11T17:33:28.514Z,4.67
2023-01-11T17:35:56.159Z,4.80
2023-01-11T17:38:25.858Z,3.50
2023-01-11T17:40:57.491Z,4.27
2023-01-11T17:43:45.265Z,3.57
2023-01-11T17:46:22.084Z,4.20
2023-01-11T17:48:59.917Z,4.40
2023-01-11T17:51:29.133Z,3.70
2023-01-11T17:53:56.418Z,3.57
2023-01-11T17:56:32.358Z,4.63
2023-01-11T17:59:11.483Z,3.90
2023-01-11T18:01:38.783Z,3.33
2023-01-11T18:04:05.723Z,4.13
2023-01-11T18:06:42.886Z,3.87
2023-01-11T18:09:22.187Z,4.30
2023-01-11T18:11:51.049Z,5.20
2023-01-11T18:14:31.937Z,4.10
2023-01-11T18:17:27.140Z,4.63
2023-01-11T18:19:54.642Z,5.07
2023-01-11T18:22:37.518Z,4.27
2023-01-11T18:25:27.045Z,4.27
2023-01-11T18:28:12.404Z,4.20
2023-01-11T18:30:58.315Z,3.70
2023-01-11T18:33:28.225Z,4.10
2023-01-11T18:36:01.699Z,4.20
2023-01-11T18:38:30.574Z,4.23
2023-01-11T18:40:59.671Z,4.40
2023-01-11T18:43:29.860Z,3.97
2023-01-11T18:45:56.782Z,3.87
2023-01-11T18:48:24.034Z,4.00
2023-01-11T18:50:52.493Z,4.10
2023-01-11T18:53:20.240Z,4.07
2023-01-11T18:55:47.315Z,4.43
2023-01-11T18:58:14.229Z,4.60
2023-01-11T19:00:41.660Z,4.20
2023-01-11T19:03:43.758Z,3.30
2023-01-11T19:06:13.573Z,3.83
2023-01-11T19:08:41.014Z,4.07
2023-01-11T19:11:07.905Z,5.60
2023-01-11T19:13:34.825Z,5.00
2023-01-11T19:16:02.007Z,4.37
2023-01-11T19:18:29.392Z,4.30
2023-01-11T19:21:02.298Z,3.87
2023-01-11T19:23:29.667Z,3.50
2023-01-11T19:25:58.380Z,4.20
2023-01-11T19:28:25.303Z,4.10
2023-01-11T19:30:52.320Z,3.40
2023-01-11T19:33:19.974Z,4.40
2023-01-11T19:35:49.708Z,4.20
2023-01-11T19:38:19.956Z,4.10
2023-01-11T19:40:50.340Z,4.87
2023-01-11T19:43:17.626Z,4.80
2023-01-11T19:45:44.510Z,3.70
2023-01-11T19:48:12.383Z,3.40
2023-01-11T19:50:39.241Z,5.27
2023-01-11T19:53:06.098Z,4.37
2023-01-11T19:55:32.985Z,3.90
2023-01-11T19:58:00.414Z,4.53
2023-01-11T20:00:27.273Z,4.00
2023-01-11T20:02:54.313Z,4.50
2023-01-11T20:05:21.322Z,4.00
2023-01-11T20:07:49.543Z,3.80
2023-01-11T20:10:17.163Z,4.90
2023-01-11T20:12:44.000Z,4.30
2023-01-11T20:15:11.437Z,3.63
2023-01-11T20:17:38.284Z,4.20
2023-01-11T20:20:06.244Z,4.50
2023-01-11T20:22:33.348Z,4.47
2023-01-11T20:25:00.885Z,3.90
2023-01-11T20:27:28.285Z,4.53
2023-01-11T20:29:55.581Z,4.23
2023-01-11T20:32:40.444Z,3.90
2023-01-11T20:35:08.972Z,4.57
2023-01-11T20:37:35.895Z,4.50
2023-01-11T20:40:03.000Z,4.27
2023-01-11T20:42:30.920Z,4.43
2023-01-11T20:44:57.782Z,4.03
2023-01-11T20:47:25.168Z,3.50
2023-01-11T20:49:51.990Z,4.70
2023-01-11T20:52:18.801Z,4.30
2023-01-11T20:54:45.751Z,4.40
2023-01-11T20:57:12.944Z,3.43
2023-01-11T20:59:39.969Z,4.10
2023-01-11T21:02:07.685Z,4.90
2023-01-11T21:04:36.100Z,4.30
2023-01-11T21:07:03.152Z,4.07
2023-01-11T21:09:30.310Z,3.87
2023-01-11T21:11:57.295Z,3.73
2023-01-11T21:14:24.151Z,3.60
2023-01-11T21:16:54.790Z,4.57
2023-01-11T21:19:21.782Z,4.03
2023-01-11T21:21:49.810Z,4.40
2023-01-11T21:24:17.781Z,4.53
2023-01-11T21:26:45.825Z,4.13
2023-01-11T21:29:13.614Z,4.70
2023-01-11T21:31:41.056Z,4.13
2023-01-11T21:34:10.081Z,5.37
2023-01-11T21:36:37.143Z,4.20
2023-01-11T21:39:05.406Z,3.67
2023-01-11T21:41:52.473Z,3.63
2023-01-11T21:44:20.930Z,3.80
2023-01-11T21:46:48.576Z,4.40
2023-01-11T21:49:16.699Z,4.00
2023-01-11T21:51:43.915Z,4.30
2023-01-11T21:54:13.297Z,4.40
2023-01-11T21:56:42.205Z,2.83
2023-01-11T21:59:09.480Z,3.93
2023-01-11T22:01:37.372Z,4.83
2023-01-11T22:04:06.175Z,3.43
2023-01-11T22:06:45.662Z,4.27
2023-01-11T22:09:12.913Z,4.37
2023-01-11T22:11:40.223Z,3.57
2023-01-11T22:14:08.847Z,4.10
2023-01-11T22:16:36.886Z,4.40
2023-01-11T22:19:07.244Z,3.70
2023-01-11T22:21:35.730Z,3.57
2023-01-11T22:24:03.539Z,3.67
2023-01-11T22:26:33.496Z,4.07
2023-01-11T22:29:13.042Z,3.70
2023-01-11T22:31:42.304Z,3.70
2023-01-11T22:34:10.646Z,3.70
2023-01-11T22:36:37.568Z,4.07
2023-01-11T22:39:04.813Z,4.03
2023-01-11T22:41:32.309Z,3.83
2023-01-11T22:43:59.202Z,3.80
2023-01-11T22:46:27.348Z,3.20
2023-01-11T22:48:54.428Z,3.60
2023-01-11T22:51:23.847Z,4.00
2023-01-11T22:53:52.215Z,4.50
2023-01-11T22:56:22.189Z,3.20
2023-01-11T22:58:52.188Z,3.03
2023-01-11T23:01:20.352Z,3.00
2023-01-11T23:03:48.741Z,3.40
2023-01-11T23:06:22.140Z,3.40
2023-01-11T23:08:49.818Z,3.50
2023-01-11T23:11:56.026Z,3.57
2023-01-11T23:14:26.728Z,4.03
2023-01-11T23:16:53.677Z,3.53
2023-01-11T23:19:20.737Z,4.50
2023-01-11T23:21:47.835Z,3.77
2023-01-11T23:24:16.254Z,3.50
2023-01-11T23:26:44.181Z,4.27
2023-01-11T23:29:12.474Z,3.67
2023-01-11T23:31:39.486Z,3.60
2023-01-11T23:34:09.471Z,4.00
2023-01-11T23:36:42.290Z,3.50
2023-01-11T23:39:19.990Z,4.30
2023-01-11T23:42:05.741Z,4.00
2023-01-11T23:44:32.654Z,4.20
2023-01-11T23:47:18.006Z,4.40
2023-01-11T23:49:45.621Z,3.57
2023-01-11T23:52:12.579Z,3.60
2023-01-11T23:54:39.891Z,4.17
2023-01-11T23:57:07.346Z,5.70
2023-01-11T23:59:34.717Z,4.80
